createdAt,value
2022-12-03T00:01:36.270Z,21.90
2022-12-03T00:04:25.576Z,19.80
2022-12-03T00:07:22.746Z,21.60
2022-12-03T00:10:10.253Z,19.50
2022-12-03T00:13:26.838Z,21.80
2022-12-03T00:16:26.254Z,21.70
2022-12-03T00:19:17.244Z,20.40
2022-12-03T00:21:57.947Z,23.90
2022-12-03T00:24:42.378Z,21.50
2022-12-03T00:27:34.136Z,24.40
2022-12-03T00:30:14.314Z,23.10
2022-12-03T00:33:02.246Z,24.90
2022-12-03T00:35:41.597Z,21.20
2022-12-03T00:38:26.657Z,22.30
2022-12-03T00:41:16.791Z,25.10
2022-12-03T00:44:17.898Z,21.80
2022-12-03T00:47:14.047Z,22.80
2022-12-03T00:50:12.799Z,24.40
2022-12-03T00:52:55.622Z,25.60
2022-12-03T00:55:38.900Z,21.50
2022-12-03T00:58:29.937Z,23.50
2022-12-03T01:01:22.701Z,24.40
2022-12-03T01:04:19.305Z,27.20
2022-12-03T01:07:12.444Z,23.50
2022-12-03T01:09:57.690Z,22.90
2022-12-03T01:12:50.781Z,26.00
2022-12-03T01:15:38.110Z,27.90
2022-12-03T01:18:22.234Z,26.20
2022-12-03T01:21:15.172Z,26.70
2022-12-03T01:23:56.520Z,27.60
2022-12-03T01:26:34.230Z,33.10
2022-12-03T01:29:16.014Z,30.40
2022-12-03T01:32:14.941Z,28.20
2022-12-03T01:34:54.275Z,29.40
2022-12-03T01:37:36.592Z,24.70
2022-12-03T01:40:28.033Z,27.50
2022-12-03T01:43:07.876Z,27.20
2022-12-03T01:45:45.793Z,27.60
2022-12-03T01:48:20.433Z,28.90
2022-12-03T01:50:52.833Z,30.10
2022-12-03T01:53:45.693Z,33.20
2022-12-03T01:56:22.367Z,29.40
2022-12-03T01:58:58.305Z,27.80
2022-12-03T02:01:36.341Z,34.60
2022-12-03T02:04:09.574Z,30.70
2022-12-03T02:06:53.834Z,31.40
2022-12-03T02:09:54.385Z,30.70
2022-12-03T02:12:39.630Z,27.90
2022-12-03T02:15:24.244Z,35.00
2022-12-03T02:18:04.837Z,27.40
2022-12-03T02:20:59.417Z,30.00
2022-12-03T02:23:56.370Z,32.30
2022-12-03T02:26:36.291Z,34.80
2022-12-03T02:29:20.460Z,34.60
2022-12-03T02:32:13.109Z,34.00
2022-12-03T02:35:04.481Z,35.30
2022-12-03T02:37:44.626Z,30.30
2022-12-03T02:40:30.664Z,37.30
2022-12-03T02:43:11.749Z,37.60
2022-12-03T02:45:50.070Z,34.00
2022-12-03T02:48:42.914Z,32.10
2022-12-03T02:51:25.970Z,37.30
2022-12-03T02:54:01.340Z,37.50
2022-12-03T02:56:40.281Z,35.10
2022-12-03T02:59:11.649Z,34.30
2022-12-03T03:04:20.310Z,34.30
2022-12-03T03:06:57.411Z,35.70
2022-12-03T03:09:37.375Z,38.80
2022-12-03T03:12:23.345Z,32.80
2022-12-03T03:15:06.982Z,36.40
2022-12-03T03:17:38.567Z,39.10
2022-12-03T03:20:13.670Z,34.00
2022-12-03T03:22:54.185Z,37.50
2022-12-03T03:25:29.455Z,31.00
2022-12-03T03:28:07.364Z,41.10
2022-12-03T03:30:42.479Z,38.00
2022-12-03T03:33:17.067Z,35.30
2022-12-03T03:35:49.709Z,35.40
2022-12-03T03:38:24.895Z,31.00
2022-12-03T03:40:56.816Z,35.00
2022-12-03T03:43:27.882Z,35.80
2022-12-03T03:45:59.115Z,35.90
2022-12-03T03:50:59.813Z,39.40
2022-12-03T03:53:31.498Z,38.00
2022-12-03T03:56:02.558Z,35.30
2022-12-03T03:58:34.096Z,34.10
2022-12-03T04:01:06.655Z,33.50
2022-12-03T04:03:38.023Z,37.40
2022-12-03T04:08:38.571Z,32.40
2022-12-03T04:11:28.217Z,36.40
2022-12-03T04:13:58.990Z,29.30
2022-12-03T04:16:30.167Z,32.00
2022-12-03T04:19:01.568Z,27.90
2022-12-03T04:21:50.083Z,32.70
2022-12-03T04:24:22.492Z,39.00
2022-12-03T04:27:10.690Z,29.30
2022-12-03T04:29:42.370Z,33.90
2022-12-03T04:32:31.256Z,35.50
2022-12-03T04:35:19.361Z,37.50
2022-12-03T04:37:50.186Z,29.20
2022-12-03T04:40:34.511Z,32.10
2022-12-03T04:43:05.116Z,36.00
2022-12-03T04:45:37.591Z,38.20
2022-12-03T04:48:08.880Z,39.10
2022-12-03T04:50:39.488Z,37.20
2022-12-03T04:53:10.020Z,34.30
2022-12-03T04:55:40.528Z,35.80
2022-12-03T04:58:13.463Z,32.60
2022-12-03T05:00:49.792Z,37.00
2022-12-03T05:03:28.491Z,36.50
2022-12-03T05:06:01.743Z,28.90
2022-12-03T05:08:34.136Z,33.70
2022-12-03T05:11:05.126Z,35.90
2022-12-03T05:13:35.925Z,32.40
2022-12-03T05:16:07.514Z,32.60
2022-12-03T05:18:40.057Z,37.30
2022-12-03T05:21:11.302Z,32.60
2022-12-03T05:23:42.653Z,33.70
2022-12-03T05:26:14.527Z,32.30
2022-12-03T05:28:45.771Z,36.10
2022-12-03T05:31:26.429Z,32.50
2022-12-03T05:34:00.353Z,40.40
2022-12-03T05:36:52.788Z,36.40
2022-12-03T05:39:32.345Z,39.00
2022-12-03T05:42:20.897Z,41.20
2022-12-03T05:44:54.660Z,38.70
2022-12-03T05:47:29.190Z,30.10
2022-12-03T05:50:01.466Z,29.50
2022-12-03T05:52:34.366Z,35.90
2022-12-03T05:55:09.306Z,36.50
2022-12-03T05:57:41.683Z,36.20
2022-12-03T06:00:18.559Z,37.30
2022-12-03T06:02:49.614Z,40.90
2022-12-03T06:05:21.459Z,36.40
2022-12-03T06:07:53.931Z,35.80
2022-12-03T06:10:26.236Z,38.60
2022-12-03T06:12:57.132Z,39.00
2022-12-03T06:15:28.366Z,41.50
2022-12-03T06:20:27.920Z,32.30
2022-12-03T06:22:58.425Z,46.80
2022-12-03T06:25:28.925Z,41.00
2022-12-03T06:27:59.406Z,44.90
2022-12-03T06:30:29.874Z,41.10
2022-12-03T06:33:01.627Z,42.10
2022-12-03T06:35:32.052Z,38.40
2022-12-03T06:38:02.546Z,41.50
2022-12-03T06:40:33.055Z,43.60
2022-12-03T06:43:03.544Z,46.60
2022-12-03T06:45:34.556Z,39.60
2022-12-03T06:48:05.192Z,40.50
2022-12-03T06:50:35.979Z,46.60
2022-12-03T06:53:06.488Z,37.80
2022-12-03T06:55:37.052Z,46.40
2022-12-03T06:58:07.747Z,38.20
2022-12-03T07:00:38.349Z,42.30
2022-12-03T07:03:09.071Z,43.40
2022-12-03T07:05:39.869Z,45.30
2022-12-03T07:08:10.847Z,44.30
2022-12-03T07:14:35.778Z,46.50
2022-12-03T07:19:36.307Z,45.30
2022-12-03T07:22:07.913Z,44.70
2022-12-03T07:24:39.371Z,48.50
2022-12-03T07:27:10.482Z,42.30
2022-12-03T07:29:41.134Z,39.90
2022-12-03T07:32:11.657Z,49.60
2022-12-03T07:34:42.174Z,50.90
2022-12-03T07:37:12.972Z,48.30
2022-12-03T07:42:12.965Z,48.50
2022-12-03T07:44:43.395Z,52.10
2022-12-03T07:47:13.880Z,45.60
2022-12-03T07:49:44.446Z,45.40
2022-12-03T07:52:14.813Z,53.70
2022-12-03T07:54:45.621Z,38.70
2022-12-03T07:57:16.005Z,50.70
2022-12-03T07:59:46.424Z,46.70
2022-12-03T08:02:21.237Z,51.40
2022-12-03T08:04:52.842Z,47.40
2022-12-03T08:07:24.134Z,54.60
2022-12-03T08:09:54.696Z,53.80
2022-12-03T08:12:40.115Z,50.10
2022-12-03T08:15:16.264Z,49.20
2022-12-03T08:17:48.848Z,44.90
2022-12-03T08:20:21.831Z,44.80
2022-12-03T08:22:54.388Z,44.10
2022-12-03T08:25:26.611Z,43.80
2022-12-03T08:28:03.724Z,46.60
2022-12-03T08:30:34.117Z,54.60
2022-12-03T08:33:07.617Z,50.70
2022-12-03T08:35:37.995Z,51.50
2022-12-03T08:38:14.108Z,48.40
2022-12-03T08:40:47.481Z,48.10
2022-12-03T08:43:22.322Z,52.60
2022-12-03T08:45:54.153Z,53.00
2022-12-03T08:48:36.795Z,47.20
2022-12-03T08:51:16.855Z,51.20
2022-12-03T08:53:49.699Z,51.10
2022-12-03T08:56:25.570Z,46.50
2022-12-03T08:58:59.352Z,44.80
2022-12-03T09:01:42.591Z,49.90
2022-12-03T09:04:38.252Z,53.30
2022-12-03T09:07:08.629Z,41.70
2022-12-03T09:09:39.743Z,45.60
2022-12-03T09:12:10.339Z,45.90
2022-12-03T09:14:40.835Z,51.60
2022-12-03T09:17:11.354Z,49.80
2022-12-03T09:19:46.046Z,49.40
2022-12-03T09:22:17.405Z,46.60
2022-12-03T09:24:47.814Z,49.80
2022-12-03T09:27:18.245Z,49.80
2022-12-03T09:29:48.855Z,48.50
2022-12-03T09:32:19.421Z,48.60
2022-12-03T09:34:49.868Z,58.30
2022-12-03T09:37:21.484Z,48.60
2022-12-03T09:39:51.888Z,56.50
2022-12-03T09:42:22.507Z,51.20
2022-12-03T09:44:53.734Z,57.60
2022-12-03T09:49:54.605Z,56.00
2022-12-03T09:52:30.068Z,46.20
2022-12-03T09:55:01.454Z,48.00
2022-12-03T10:00:01.286Z,50.50
2022-12-03T10:02:34.240Z,44.50
2022-12-03T10:05:04.746Z,51.10
2022-12-03T10:07:35.495Z,52.30
2022-12-03T10:10:08.765Z,47.10
2022-12-03T10:12:39.244Z,52.50
2022-12-03T10:15:14.477Z,56.40
2022-12-03T10:17:46.752Z,48.00
2022-12-03T10:20:20.092Z,56.60
2022-12-03T10:22:50.832Z,42.90
2022-12-03T10:25:23.734Z,51.70
2022-12-03T10:28:02.056Z,51.90
2022-12-03T10:30:32.898Z,48.40
2022-12-03T10:33:18.906Z,41.30
2022-12-03T10:35:50.004Z,43.80
2022-12-03T10:38:23.683Z,44.10
2022-12-03T10:40:54.508Z,41.60
2022-12-03T10:43:26.544Z,48.20
2022-12-03T10:46:18.164Z,50.50
2022-12-03T10:49:08.494Z,49.90
2022-12-03T10:51:40.361Z,50.20
2022-12-03T10:54:19.090Z,49.80
2022-12-03T10:56:51.639Z,46.10
2022-12-03T10:59:24.529Z,50.90
2022-12-03T11:01:55.175Z,39.20
2022-12-03T11:04:30.276Z,41.90
2022-12-03T11:07:02.928Z,46.20
2022-12-03T11:09:34.627Z,53.30
2022-12-03T11:12:09.102Z,54.20
2022-12-03T11:15:07.796Z,51.20
2022-12-03T11:17:52.536Z,53.30
2022-12-03T11:20:56.849Z,49.30
2022-12-03T11:23:58.170Z,54.50
2022-12-03T11:27:03.624Z,51.30
2022-12-03T11:29:58.731Z,55.90
2022-12-03T11:33:07.336Z,50.60
2022-12-03T11:36:15.287Z,52.10
2022-12-03T11:38:58.677Z,60.70
2022-12-03T11:41:35.098Z,52.50
2022-12-03T11:44:20.855Z,60.20
2022-12-03T11:46:51.570Z,61.30
2022-12-03T11:49:34.346Z,64.30
2022-12-03T11:52:20.151Z,59.20
2022-12-03T11:54:54.387Z,55.40
2022-12-03T11:57:38.002Z,54.20
2022-12-03T12:00:20.499Z,48.80
2022-12-03T12:02:51.964Z,54.30
2022-12-03T12:10:42.637Z,52.20
2022-12-03T12:13:57.121Z,51.20
2022-12-03T12:16:43.090Z,53.20
2022-12-03T12:19:43.449Z,50.30
2022-12-03T12:22:20.695Z,55.50
2022-12-03T12:24:53.972Z,60.90
2022-12-03T12:27:30.907Z,53.70
2022-12-03T12:30:02.807Z,64.40
2022-12-03T12:32:35.368Z,49.60
2022-12-03T12:35:18.009Z,52.10
2022-12-03T12:37:58.939Z,54.50
2022-12-03T12:40:33.622Z,47.10
2022-12-03T12:43:14.139Z,50.80
2022-12-03T12:45:47.028Z,49.40
2022-12-03T12:48:25.369Z,51.80
2022-12-03T12:51:01.543Z,49.80
2022-12-03T12:53:34.362Z,52.70
2022-12-03T12:56:24.244Z,44.10
2022-12-03T12:58:55.790Z,54.30
2022-12-03T13:01:30.670Z,48.00
2022-12-03T13:04:02.961Z,52.60
2022-12-03T13:06:35.553Z,52.60
2022-12-03T13:09:10.539Z,54.80
2022-12-03T13:11:45.747Z,55.50
2022-12-03T13:14:22.672Z,48.90
2022-12-03T13:16:55.661Z,56.90
2022-12-03T13:19:28.035Z,57.70
2022-12-03T13:22:01.799Z,53.30
2022-12-03T13:24:37.015Z,54.90
2022-12-03T13:27:26.692Z,55.10
2022-12-03T13:30:01.445Z,54.20
2022-12-03T13:32:35.222Z,54.60
2022-12-03T13:35:09.228Z,53.90
2022-12-03T13:37:40.956Z,50.40
2022-12-03T13:40:25.172Z,54.70
2022-12-03T13:42:55.672Z,50.00
2022-12-03T13:45:36.037Z,49.50
2022-12-03T13:48:22.912Z,41.60
2022-12-03T13:50:54.619Z,52.90
2022-12-03T13:53:27.826Z,57.70
2022-12-03T13:56:04.441Z,53.90
2022-12-03T13:58:34.851Z,50.60
2022-12-03T14:01:05.388Z,46.70
2022-12-03T14:03:36.066Z,51.50
2022-12-03T14:06:06.819Z,51.10
2022-12-03T14:08:37.269Z,48.30
2022-12-03T14:11:08.005Z,42.40
2022-12-03T14:13:38.383Z,52.00
2022-12-03T14:16:10.328Z,42.70
2022-12-03T14:18:40.848Z,47.80
2022-12-03T14:21:11.209Z,44.30
2022-12-03T14:23:41.593Z,42.30
2022-12-03T14:26:12.104Z,46.90
2022-12-03T14:28:42.439Z,43.90
2022-12-03T14:31:12.951Z,42.10
2022-12-03T14:33:43.401Z,46.70
2022-12-03T14:36:13.906Z,48.70
2022-12-03T14:38:44.347Z,46.40
2022-12-03T14:41:32.997Z,48.30
2022-12-03T14:44:03.415Z,48.30
2022-12-03T14:46:36.626Z,60.50
2022-12-03T14:49:07.040Z,49.40
2022-12-03T14:51:37.425Z,47.90
2022-12-03T14:54:09.146Z,43.20
2022-12-03T14:56:39.729Z,48.60
2022-12-03T14:59:10.115Z,46.80
2022-12-03T15:01:40.830Z,50.70
2022-12-03T15:04:11.586Z,56.00
2022-12-03T15:06:42.007Z,53.20
2022-12-03T15:09:12.761Z,45.00
2022-12-03T15:11:46.360Z,48.90
2022-12-03T15:14:17.444Z,45.50
2022-12-03T15:16:47.759Z,52.90
2022-12-03T15:19:18.281Z,48.60
2022-12-03T15:21:48.789Z,53.10
2022-12-03T15:24:19.396Z,47.70
2022-12-03T15:26:52.270Z,45.30
2022-12-03T15:29:23.101Z,46.10
2022-12-03T15:31:53.501Z,42.00
2022-12-03T15:34:23.917Z,48.20
2022-12-03T15:36:54.294Z,54.70
2022-12-03T15:39:25.836Z,48.10
2022-12-03T15:41:56.092Z,46.70
2022-12-03T15:44:26.536Z,50.20
2022-12-03T15:46:56.955Z,49.40
2022-12-03T15:49:27.412Z,54.50
2022-12-03T15:51:57.821Z,48.50
2022-12-03T15:54:28.313Z,46.00
2022-12-03T15:56:58.928Z,50.80
2022-12-03T15:59:29.707Z,44.20
2022-12-03T16:02:00.221Z,47.20
2022-12-03T16:04:30.645Z,53.80
2022-12-03T16:07:01.216Z,47.80
2022-12-03T16:09:31.722Z,48.50
2022-12-03T16:12:02.658Z,54.00
2022-12-03T16:14:33.394Z,45.90
2022-12-03T16:17:03.768Z,51.30
2022-12-03T16:19:34.861Z,47.70
2022-12-03T16:22:05.409Z,54.10
2022-12-03T16:24:36.037Z,60.70
2022-12-03T16:27:06.786Z,44.90
2022-12-03T16:29:37.584Z,55.70
2022-12-03T16:32:08.413Z,46.20
2022-12-03T16:34:38.820Z,58.10
2022-12-03T16:37:10.420Z,43.00
2022-12-03T16:39:48.090Z,46.50
2022-12-03T16:42:18.493Z,46.10
2022-12-03T16:45:15.413Z,51.30
2022-12-03T16:47:46.269Z,46.20
2022-12-03T16:50:24.481Z,50.00
2022-12-03T16:52:59.569Z,46.30
2022-12-03T16:55:29.983Z,42.10
2022-12-03T16:58:00.496Z,47.30
2022-12-03T17:00:31.052Z,47.40
2022-12-03T17:03:01.488Z,48.50
2022-12-03T17:05:32.008Z,49.80
2022-12-03T17:08:02.664Z,42.90
2022-12-03T17:10:33.460Z,44.00
2022-12-03T17:13:11.340Z,41.40
2022-12-03T17:15:42.493Z,41.90
2022-12-03T17:18:13.040Z,47.30
2022-12-03T17:20:43.568Z,42.10
2022-12-03T17:23:14.026Z,45.40
2022-12-03T17:25:44.509Z,49.10
2022-12-03T17:28:14.972Z,45.90
2022-12-03T17:30:45.954Z,51.40
2022-12-03T17:33:16.406Z,42.30
2022-12-03T17:35:46.897Z,40.70
2022-12-03T17:38:17.191Z,43.40
2022-12-03T17:40:47.580Z,46.30
2022-12-03T17:43:17.945Z,46.20
2022-12-03T17:45:48.406Z,48.10
2022-12-03T17:48:18.832Z,39.50
2022-12-03T17:50:50.132Z,39.00
2022-12-03T17:53:20.554Z,45.30
2022-12-03T17:55:50.889Z,46.90
2022-12-03T17:58:21.573Z,50.10
2022-12-03T18:00:53.258Z,47.30
2022-12-03T18:03:26.877Z,47.60
2022-12-03T18:05:57.396Z,44.60
2022-12-03T18:08:27.712Z,51.50
2022-12-03T18:10:58.113Z,48.40
2022-12-03T18:13:28.936Z,46.00
2022-12-03T18:18:28.906Z,44.00
2022-12-03T18:21:02.027Z,47.90
2022-12-03T18:23:33.063Z,40.20
2022-12-03T18:26:04.797Z,49.70
2022-12-03T18:28:35.331Z,42.30
2022-12-03T18:31:12.681Z,41.50
2022-12-03T18:33:43.383Z,48.20
2022-12-03T18:36:18.912Z,41.60
2022-12-03T18:38:52.141Z,43.00
2022-12-03T18:41:24.024Z,47.30
2022-12-03T18:43:54.580Z,41.50
2022-12-03T18:46:51.636Z,43.10
2022-12-03T18:49:15.441Z,43.20
2022-12-03T18:51:45.933Z,44.20
2022-12-03T18:54:16.766Z,45.50
2022-12-03T18:56:47.436Z,44.30
2022-12-03T18:59:17.903Z,49.20
2022-12-03T19:01:48.422Z,38.90
2022-12-03T19:04:18.893Z,46.60
2022-12-03T19:06:49.361Z,43.30
2022-12-03T19:09:20.077Z,46.40
2022-12-03T19:11:50.582Z,41.10
2022-12-03T19:14:21.066Z,46.50
2022-12-03T19:16:52.198Z,43.80
2022-12-03T19:19:27.149Z,45.60
2022-12-03T19:21:58.121Z,51.60
2022-12-03T19:24:29.110Z,46.00
2022-12-03T19:26:59.853Z,53.10
2022-12-03T19:29:30.282Z,50.10
2022-12-03T19:32:01.052Z,59.00
2022-12-03T19:34:31.942Z,45.00
2022-12-03T19:37:02.479Z,48.90
2022-12-03T19:39:33.241Z,43.40
2022-12-03T19:42:03.805Z,46.00
2022-12-03T19:44:34.238Z,51.60
2022-12-03T19:47:04.819Z,44.00
2022-12-03T19:49:35.480Z,46.00
2022-12-03T19:52:07.404Z,46.50
2022-12-03T19:54:37.850Z,51.00
2022-12-03T19:57:09.606Z,48.70
2022-12-03T19:59:40.194Z,46.60
2022-12-03T20:02:11.906Z,48.90
2022-12-03T20:04:42.958Z,48.50
2022-12-03T20:07:13.968Z,48.60
2022-12-03T20:09:47.337Z,49.70
2022-12-03T20:12:17.968Z,49.80
2022-12-03T20:14:49.852Z,49.70
2022-12-03T20:17:20.630Z,55.20
2022-12-03T20:19:51.425Z,43.90
2022-12-03T20:22:21.927Z,44.90
2022-12-03T20:24:52.422Z,55.40
2022-12-03T20:27:23.310Z,48.40
2022-12-03T20:29:54.198Z,42.40
2022-12-03T20:32:24.904Z,42.20
2022-12-03T20:34:55.527Z,38.70
2022-12-03T20:37:26.132Z,43.10
2022-12-03T20:39:56.762Z,47.80
2022-12-03T20:42:27.498Z,47.50
2022-12-03T20:44:57.972Z,44.10
2022-12-03T20:47:28.444Z,39.00
2022-12-03T20:49:58.839Z,39.00
2022-12-03T20:52:29.324Z,38.50
2022-12-03T20:54:59.734Z,41.90
2022-12-03T20:57:30.259Z,39.00
2022-12-03T21:00:00.750Z,37.80
2022-12-03T21:02:31.305Z,40.20
2022-12-03T21:05:02.015Z,38.80
2022-12-03T21:07:32.720Z,40.00
2022-12-03T21:10:03.495Z,43.00
2022-12-03T21:12:34.093Z,35.60
2022-12-03T21:15:04.701Z,35.70
2022-12-03T21:17:35.924Z,36.60
2022-12-03T21:20:08.402Z,38.10
2022-12-03T21:22:39.351Z,35.00
2022-12-03T21:25:10.379Z,40.00
2022-12-03T21:27:40.852Z,36.70
2022-12-03T21:30:12.651Z,35.40
2022-12-03T21:32:43.258Z,34.40
2022-12-03T21:35:13.830Z,37.80
2022-12-03T21:37:44.688Z,40.70
2022-12-03T21:40:16.078Z,34.90
2022-12-03T21:42:47.095Z,34.80
2022-12-03T21:45:18.093Z,33.40
2022-12-03T21:47:50.293Z,34.20
2022-12-03T21:50:21.264Z,32.50
2022-12-03T21:52:52.876Z,33.60
2022-12-03T21:55:23.424Z,31.60
2022-12-03T21:57:54.067Z,30.30
2022-12-03T22:00:25.261Z,26.50
2022-12-03T22:02:55.782Z,30.00
2022-12-03T22:05:26.248Z,28.60
2022-12-03T22:07:56.896Z,31.30
2022-12-03T22:10:27.444Z,32.70
2022-12-03T22:12:57.847Z,36.00
2022-12-03T22:15:28.431Z,30.10
2022-12-03T22:17:58.997Z,31.70
2022-12-03T22:20:29.759Z,33.00
2022-12-03T22:23:00.242Z,30.50
2022-12-03T22:25:31.610Z,33.00
2022-12-03T22:30:31.022Z,33.40
2022-12-03T22:33:01.537Z,32.30
2022-12-03T22:35:31.963Z,31.40
2022-12-03T22:38:02.559Z,35.40
2022-12-03T22:40:33.011Z,31.90
2022-12-03T22:43:03.568Z,34.10
2022-12-03T22:45:35.751Z,38.20
2022-12-03T22:48:06.756Z,35.40
2022-12-03T22:50:41.602Z,40.10
2022-12-03T22:53:12.480Z,34.00
2022-12-03T22:55:43.386Z,34.80
2022-12-03T22:58:13.908Z,28.90
2022-12-03T23:00:44.379Z,31.10
2022-12-03T23:03:14.861Z,32.70
2022-12-03T23:05:45.542Z,35.40
2022-12-03T23:08:17.779Z,31.60
2022-12-03T23:10:51.163Z,34.70
2022-12-03T23:13:22.117Z,29.20
2022-12-03T23:15:54.265Z,35.20
2022-12-03T23:18:24.957Z,31.20
2022-12-03T23:20:57.296Z,31.70
2022-12-03T23:23:29.716Z,35.70
2022-12-03T23:26:00.887Z,35.70
2022-12-03T23:28:32.916Z,34.90
2022-12-03T23:31:03.901Z,36.20
2022-12-03T23:33:38.414Z,36.10
2022-12-03T23:36:10.532Z,35.90
2022-12-03T23:38:41.305Z,33.40
2022-12-03T23:41:14.041Z,37.50
2022-12-03T23:43:44.644Z,35.10
2022-12-03T23:46:17.021Z,34.60
2022-12-03T23:48:47.441Z,32.40
2022-12-03T23:51:20.184Z,32.60
2022-12-03T23:53:51.232Z,29.70
2022-12-03T23:56:24.707Z,37.60
2022-12-03T23:58:55.268Z,34.80
